createdAt,value
2019-02-02T00:01:19.147Z,35.07
2019-02-02T00:03:48.254Z,33.97
2019-02-02T00:06:17.495Z,35.93
2019-02-02T00:08:46.715Z,35.30
2019-02-02T00:11:16.196Z,36.67
2019-02-02T00:13:45.292Z,35.63
2019-02-02T00:16:14.408Z,36.93
2019-02-02T00:18:43.362Z,36.90
2019-02-02T00:21:12.435Z,36.23
2019-02-02T00:23:41.465Z,35.07
2019-02-02T00:26:10.542Z,36.10
2019-02-02T00:28:39.571Z,36.13
2019-02-02T00:31:08.719Z,37.17
2019-02-02T00:33:37.683Z,38.47
2019-02-02T00:36:06.774Z,37.47
2019-02-02T00:38:35.731Z,37.43
2019-02-02T00:41:05.216Z,35.80
2019-02-02T00:43:34.562Z,36.83
2019-02-02T00:46:03.691Z,38.43
2019-02-02T00:48:32.924Z,36.40
2019-02-02T00:51:02.019Z,38.00
2019-02-02T00:53:31.175Z,34.97
2019-02-02T00:56:00.162Z,37.43
2019-02-02T00:58:29.246Z,34.67
2019-02-02T01:00:58.178Z,34.80
2019-02-02T01:03:27.147Z,38.27
2019-02-02T01:05:56.172Z,37.23
2019-02-02T01:08:25.182Z,37.40
2019-02-02T01:10:54.310Z,37.13
2019-02-02T01:13:23.677Z,36.13
2019-02-02T01:15:52.700Z,35.77
2019-02-02T01:18:21.999Z,37.63
2019-02-02T01:20:51.094Z,39.10
2019-02-02T01:23:20.115Z,40.23
2019-02-02T01:25:49.058Z,40.50
2019-02-02T01:28:18.107Z,39.63
2019-02-02T01:30:47.029Z,39.27
2019-02-02T01:33:16.078Z,38.80
2019-02-02T01:35:45.114Z,40.67
2019-02-02T01:38:14.366Z,40.77
2019-02-02T01:40:43.402Z,42.60
2019-02-02T01:43:12.471Z,43.07
2019-02-02T01:45:41.504Z,41.00
2019-02-02T01:48:10.755Z,41.40
2019-02-02T01:50:39.787Z,41.13
2019-02-02T01:53:09.118Z,41.77
2019-02-02T01:55:38.125Z,40.20
2019-02-02T01:58:16.540Z,41.77
2019-02-02T02:00:38.183Z,42.97
2019-02-02T02:03:07.464Z,42.47
2019-02-02T02:05:36.848Z,41.80
2019-02-02T02:08:06.247Z,42.23
2019-02-02T02:10:35.253Z,44.63
2019-02-02T02:13:04.518Z,40.90
2019-02-02T02:15:33.739Z,46.57
2019-02-02T02:18:03.131Z,47.23
2019-02-02T02:20:32.263Z,44.23
2019-02-02T02:23:01.279Z,45.50
2019-02-02T02:25:30.274Z,45.90
2019-02-02T02:27:59.470Z,47.63
2019-02-02T02:30:28.575Z,46.83
2019-02-02T02:32:57.608Z,46.40
2019-02-02T02:35:26.635Z,47.83
2019-02-02T02:37:55.839Z,49.00
2019-02-02T02:40:25.594Z,48.13
2019-02-02T02:42:54.865Z,50.80
2019-02-02T02:45:23.964Z,50.63
2019-02-02T02:47:53.021Z,49.87
2019-02-02T02:50:22.375Z,50.57
2019-02-02T02:52:51.553Z,51.67
2019-02-02T02:55:20.634Z,52.83
2019-02-02T02:57:49.643Z,55.03
2019-02-02T03:00:21.030Z,54.67
2019-02-02T03:02:50.223Z,54.40
2019-02-02T03:05:20.279Z,55.63
2019-02-02T03:07:50.261Z,55.80
2019-02-02T03:10:20.429Z,59.20
2019-02-02T03:12:49.623Z,56.57
2019-02-02T03:15:18.890Z,58.13
2019-02-02T03:17:48.071Z,57.73
2019-02-02T03:20:17.638Z,55.33
2019-02-02T03:22:46.566Z,56.73
2019-02-02T03:25:20.647Z,57.20
2019-02-02T03:27:49.731Z,57.10
2019-02-02T03:30:19.838Z,60.63
2019-02-02T03:32:49.077Z,58.73
2019-02-02T03:35:20.218Z,57.43
2019-02-02T03:37:49.313Z,60.43
2019-02-02T03:40:20.391Z,60.97
2019-02-02T03:42:49.498Z,60.40
2019-02-02T03:45:21.311Z,59.27
2019-02-02T03:47:51.459Z,61.40
2019-02-02T03:50:20.539Z,60.60
2019-02-02T03:52:49.678Z,60.73
2019-02-02T03:55:19.228Z,59.97
2019-02-02T03:57:48.556Z,62.93
2019-02-02T04:00:19.175Z,61.43
2019-02-02T04:02:49.357Z,62.07
2019-02-02T04:05:20.578Z,63.10
2019-02-02T04:07:49.654Z,59.97
2019-02-02T04:10:18.722Z,63.27
2019-02-02T04:12:47.909Z,62.60
2019-02-02T04:15:17.275Z,64.03
2019-02-02T04:17:46.346Z,62.50
2019-02-02T04:20:17.533Z,64.23
2019-02-02T04:22:46.567Z,61.77
2019-02-02T04:25:16.101Z,63.43
2019-02-02T04:27:45.211Z,65.00
2019-02-02T04:30:19.695Z,63.23
2019-02-02T04:32:48.805Z,61.90
2019-02-02T04:35:18.274Z,62.33
2019-02-02T04:37:47.466Z,63.70
2019-02-02T04:40:16.486Z,65.07
2019-02-02T04:42:45.633Z,65.23
2019-02-02T04:45:15.237Z,64.00
2019-02-02T04:47:44.192Z,62.27
2019-02-02T04:50:14.758Z,64.03
2019-02-02T04:52:43.842Z,63.67
2019-02-02T04:55:15.217Z,65.63
2019-02-02T04:57:44.566Z,65.33
2019-02-02T05:00:20.946Z,62.93
2019-02-02T05:02:50.407Z,63.07
2019-02-02T05:05:19.938Z,67.17
2019-02-02T05:07:48.878Z,64.67
2019-02-02T05:10:19.487Z,65.47
2019-02-02T05:12:48.750Z,66.10
2019-02-02T05:15:17.737Z,65.07
2019-02-02T05:17:47.282Z,68.40
2019-02-02T05:20:17.620Z,64.77
2019-02-02T05:22:47.005Z,65.97
2019-02-02T05:25:16.169Z,64.20
2019-02-02T05:27:45.205Z,66.97
2019-02-02T05:30:17.431Z,64.73
2019-02-02T05:32:46.454Z,62.07
2019-02-02T05:35:15.527Z,64.27
2019-02-02T05:37:44.651Z,66.43
2019-02-02T05:40:15.262Z,66.23
2019-02-02T05:42:44.970Z,61.90
2019-02-02T05:45:16.027Z,61.93
2019-02-02T05:47:45.192Z,63.90
2019-02-02T05:50:16.482Z,65.20
2019-02-02T05:52:45.858Z,66.03
2019-02-02T05:55:15.577Z,63.67
2019-02-02T05:57:44.628Z,65.10
2019-02-02T06:00:29.745Z,64.33
2019-02-02T06:02:58.870Z,62.00
2019-02-02T06:05:28.007Z,63.70
2019-02-02T06:07:57.271Z,63.93
2019-02-02T06:10:26.949Z,61.70
2019-02-02T06:12:56.503Z,61.40
2019-02-02T06:15:28.515Z,64.07
2019-02-02T06:17:56.707Z,63.07
2019-02-02T06:20:25.702Z,63.13
2019-02-02T06:22:54.895Z,63.33
2019-02-02T06:25:23.908Z,63.67
2019-02-02T06:27:52.895Z,62.60
2019-02-02T06:30:22.027Z,62.53
2019-02-02T06:32:51.307Z,65.40
2019-02-02T06:35:23.442Z,63.80
2019-02-02T06:37:52.302Z,62.33
2019-02-02T06:40:21.635Z,65.37
2019-02-02T06:42:53.223Z,60.13
2019-02-02T06:45:33.938Z,62.53
2019-02-02T06:48:04.330Z,62.80
2019-02-02T06:50:33.334Z,64.60
2019-02-02T06:53:02.646Z,65.40
2019-02-02T06:55:31.696Z,65.93
2019-02-02T06:58:01.220Z,65.63
2019-02-02T07:00:30.386Z,66.97
2019-02-02T07:02:59.486Z,66.73
2019-02-02T07:05:28.566Z,68.33
2019-02-02T07:07:57.505Z,68.53
2019-02-02T07:10:27.132Z,65.43
2019-02-02T07:12:56.378Z,66.90
2019-02-02T07:15:27.471Z,65.90
2019-02-02T07:17:56.688Z,67.43
2019-02-02T07:20:25.771Z,65.30
2019-02-02T07:22:54.986Z,65.97
2019-02-02T07:25:26.857Z,63.60
2019-02-02T07:27:58.147Z,62.80
2019-02-02T07:30:29.077Z,68.33
2019-02-02T07:32:58.089Z,64.33
2019-02-02T07:35:27.099Z,63.30
2019-02-02T07:37:56.480Z,68.20
2019-02-02T07:40:25.662Z,61.90
2019-02-02T07:42:54.942Z,61.77
2019-02-02T07:45:26.482Z,64.07
2019-02-02T07:47:55.746Z,64.50
2019-02-02T07:50:24.881Z,64.87
2019-02-02T07:52:54.007Z,63.47
2019-02-02T07:55:23.754Z,60.77
2019-02-02T07:57:53.041Z,62.50
2019-02-02T08:00:40.792Z,62.60
2019-02-02T08:03:05.098Z,59.77
2019-02-02T08:05:34.765Z,60.70
2019-02-02T08:08:04.475Z,63.50
2019-02-02T08:10:33.499Z,62.80
2019-02-02T08:13:03.801Z,66.30
2019-02-02T08:15:34.004Z,64.77
2019-02-02T08:18:03.353Z,63.03
2019-02-02T08:20:32.572Z,64.27
2019-02-02T08:23:01.986Z,67.77
2019-02-02T08:25:31.255Z,68.50
2019-02-02T08:28:00.399Z,67.80
2019-02-02T08:30:31.589Z,65.83
2019-02-02T08:33:01.250Z,65.90
2019-02-02T08:35:30.264Z,64.50
2019-02-02T08:37:59.367Z,66.53
2019-02-02T08:40:28.434Z,64.50
2019-02-02T08:42:57.314Z,62.40
2019-02-02T08:45:26.328Z,64.33
2019-02-02T08:47:55.276Z,65.10
2019-02-02T08:50:26.876Z,62.70
2019-02-02T08:52:55.926Z,64.50
2019-02-02T08:55:25.174Z,64.93
2019-02-02T08:57:54.276Z,67.80
2019-02-02T09:00:23.397Z,67.53
2019-02-02T09:02:52.633Z,64.00
2019-02-02T09:05:22.174Z,65.27
2019-02-02T09:07:51.494Z,64.47
2019-02-02T09:10:22.412Z,66.33
2019-02-02T09:12:51.538Z,67.60
2019-02-02T09:15:20.898Z,70.40
2019-02-02T09:17:50.157Z,66.80
2019-02-02T09:20:19.498Z,69.87
2019-02-02T09:22:48.746Z,64.57
2019-02-02T09:25:18.103Z,64.57
2019-02-02T09:27:47.494Z,67.63
2019-02-02T09:30:19.152Z,66.10
2019-02-02T09:32:48.237Z,69.43
2019-02-02T09:35:17.360Z,66.23
2019-02-02T09:37:46.468Z,66.70
2019-02-02T09:40:16.800Z,65.93
2019-02-02T09:42:45.879Z,65.47
2019-02-02T09:45:16.380Z,64.70
2019-02-02T09:47:45.676Z,62.97
2019-02-02T09:50:17.242Z,64.93
2019-02-02T09:52:46.182Z,64.37
2019-02-02T09:55:16.658Z,62.77
2019-02-02T09:57:45.694Z,61.60
2019-02-02T10:00:17.864Z,64.67
2019-02-02T10:02:47.432Z,64.93
2019-02-02T10:05:19.047Z,63.70
2019-02-02T10:07:47.602Z,60.30
2019-02-02T10:10:18.903Z,66.33
2019-02-02T10:12:48.201Z,61.40
2019-02-02T10:15:17.697Z,65.10
2019-02-02T10:17:49.666Z,63.23
2019-02-02T10:20:19.444Z,63.53
2019-02-02T10:22:48.754Z,63.77
2019-02-02T10:25:20.010Z,62.73
2019-02-02T10:27:49.023Z,63.17
2019-02-02T10:30:38.737Z,64.30
2019-02-02T10:33:07.974Z,63.60
2019-02-02T10:35:37.043Z,62.57
2019-02-02T10:38:06.356Z,65.07
2019-02-02T10:40:35.775Z,63.37
2019-02-02T10:43:05.146Z,65.10
2019-02-02T10:45:34.414Z,64.50
2019-02-02T10:48:03.470Z,64.67
2019-02-02T10:50:32.579Z,63.90
2019-02-02T10:53:01.858Z,67.43
2019-02-02T10:55:31.145Z,63.47
2019-02-02T10:58:00.138Z,62.03
2019-02-02T11:00:31.704Z,64.83
2019-02-02T11:03:02.109Z,62.83
2019-02-02T11:05:31.548Z,63.97
2019-02-02T11:08:01.207Z,61.93
2019-02-02T11:10:31.838Z,62.67
2019-02-02T11:13:01.011Z,64.33
2019-02-02T11:15:30.170Z,62.93
2019-02-02T11:17:59.274Z,63.00
2019-02-02T11:20:32.652Z,61.90
2019-02-02T11:23:02.325Z,62.73
2019-02-02T11:25:32.564Z,62.70
2019-02-02T11:28:01.746Z,62.87
2019-02-02T11:30:31.440Z,62.33
2019-02-02T11:33:00.471Z,62.10
2019-02-02T11:35:29.633Z,65.07
2019-02-02T11:37:58.667Z,63.90
2019-02-02T11:40:29.427Z,64.00
2019-02-02T11:42:58.526Z,63.80
2019-02-02T11:45:27.630Z,66.60
2019-02-02T11:47:56.680Z,66.63
2019-02-02T11:50:25.795Z,65.60
2019-02-02T11:52:54.875Z,62.27
2019-02-02T11:55:24.071Z,67.83
2019-02-02T11:57:53.177Z,71.07
2019-02-02T12:00:30.437Z,69.53
2019-02-02T12:02:59.553Z,70.40
2019-02-02T12:05:28.884Z,71.07
2019-02-02T12:07:57.967Z,70.83
2019-02-02T12:10:27.631Z,68.07
2019-02-02T12:12:57.075Z,69.40
2019-02-02T12:15:26.880Z,64.63
2019-02-02T12:17:56.073Z,66.30
2019-02-02T12:20:25.202Z,67.63
2019-02-02T12:22:54.322Z,64.20
2019-02-02T12:25:23.517Z,62.27
2019-02-02T12:27:52.476Z,66.43
2019-02-02T12:30:25.699Z,63.53
2019-02-02T12:32:55.298Z,63.80
2019-02-02T12:35:25.506Z,65.27
2019-02-02T12:37:54.940Z,63.77
2019-02-02T12:40:24.317Z,71.70
2019-02-02T12:42:53.734Z,67.13
2019-02-02T12:45:25.710Z,73.50
2019-02-02T12:47:54.836Z,75.67
2019-02-02T12:50:23.949Z,69.27
2019-02-02T12:52:53.146Z,96.90
2019-02-02T12:55:22.328Z,91.43
2019-02-02T12:57:51.509Z,60.23
2019-02-02T13:00:20.804Z,60.20
2019-02-02T13:02:50.319Z,60.80
2019-02-02T13:05:20.629Z,58.50
2019-02-02T13:07:49.703Z,59.23
2019-02-02T13:10:20.906Z,61.27
2019-02-02T13:12:49.901Z,62.87
2019-02-02T13:15:19.201Z,60.67
2019-02-02T13:17:48.305Z,59.37
2019-02-02T13:20:17.618Z,57.60
2019-02-02T13:22:47.724Z,56.80
2019-02-02T13:25:18.346Z,57.07
2019-02-02T13:27:47.659Z,54.93
2019-02-02T13:30:19.835Z,55.30
2019-02-02T13:32:50.162Z,55.97
2019-02-02T13:35:19.754Z,58.70
2019-02-02T13:37:49.165Z,59.73
2019-02-02T13:40:19.598Z,55.10
2019-02-02T13:42:49.006Z,53.90
2019-02-02T13:45:18.910Z,55.00
2019-02-02T13:47:48.295Z,56.50
2019-02-02T13:50:18.056Z,53.77
2019-02-02T13:52:47.298Z,52.73
2019-02-02T13:55:16.510Z,52.60
2019-02-02T13:57:45.585Z,50.53
2019-02-02T14:00:25.755Z,50.33
2019-02-02T14:03:02.755Z,53.70
2019-02-02T14:05:25.929Z,51.20
2019-02-02T14:07:54.986Z,52.87
2019-02-02T14:10:25.905Z,51.80
2019-02-02T14:12:54.991Z,49.63
2019-02-02T14:15:24.246Z,49.77
2019-02-02T14:17:53.260Z,50.23
2019-02-02T14:20:22.413Z,50.77
2019-02-02T14:22:51.855Z,51.57
2019-02-02T14:25:20.886Z,51.03
2019-02-02T14:27:49.810Z,47.87
2019-02-02T14:30:20.686Z,48.20
2019-02-02T14:32:49.785Z,49.40
2019-02-02T14:35:19.937Z,49.87
2019-02-02T14:37:49.294Z,51.53
2019-02-02T14:40:18.986Z,52.07
2019-02-02T14:42:48.001Z,51.47
2019-02-02T14:45:18.834Z,53.17
2019-02-02T14:47:48.025Z,51.20
2019-02-02T14:50:19.189Z,51.13
2019-02-02T14:52:49.078Z,50.60
2019-02-02T14:55:23.229Z,50.03
2019-02-02T14:57:52.534Z,47.53
2019-02-02T15:00:23.467Z,48.30
2019-02-02T15:02:52.966Z,46.80
2019-02-02T15:05:22.600Z,47.33
2019-02-02T15:07:51.642Z,46.43
2019-02-02T15:10:21.654Z,46.70
2019-02-02T15:12:51.385Z,47.40
2019-02-02T15:15:20.938Z,45.20
2019-02-02T15:17:50.237Z,46.73
2019-02-02T15:20:27.354Z,45.87
2019-02-02T15:22:56.982Z,47.13
2019-02-02T15:25:26.391Z,48.27
2019-02-02T15:27:55.393Z,49.83
2019-02-02T15:30:26.503Z,50.13
2019-02-02T15:32:55.747Z,51.40
2019-02-02T15:35:24.842Z,49.10
2019-02-02T15:37:54.187Z,50.07
2019-02-02T15:40:23.358Z,50.27
2019-02-02T15:42:52.635Z,50.90
2019-02-02T15:45:23.102Z,50.97
2019-02-02T15:47:52.119Z,51.10
2019-02-02T15:50:21.523Z,50.30
2019-02-02T15:52:50.626Z,49.63
2019-02-02T15:55:21.002Z,52.37
2019-02-02T15:57:50.099Z,51.40
2019-02-02T16:00:27.094Z,51.00
2019-02-02T16:02:56.428Z,48.93
2019-02-02T16:05:25.654Z,52.83
2019-02-02T16:07:54.715Z,51.73
2019-02-02T16:10:25.492Z,49.73
2019-02-02T16:12:54.628Z,51.07
2019-02-02T16:15:23.875Z,49.80
2019-02-02T16:17:52.899Z,50.60
2019-02-02T16:20:30.566Z,51.03
2019-02-02T16:22:59.918Z,50.13
2019-02-02T16:25:28.917Z,51.20
2019-02-02T16:27:58.278Z,50.90
2019-02-02T16:30:27.883Z,50.13
2019-02-02T16:32:56.918Z,50.37
2019-02-02T16:35:25.993Z,49.10
2019-02-02T16:37:55.481Z,49.37
2019-02-02T16:40:26.081Z,50.67
2019-02-02T16:42:55.033Z,51.10
2019-02-02T16:45:25.898Z,51.20
2019-02-02T16:47:55.062Z,58.83
2019-02-02T16:50:24.706Z,55.13
2019-02-02T16:52:53.822Z,55.30
2019-02-02T16:55:23.122Z,56.73
2019-02-02T16:57:52.271Z,54.27
2019-02-02T17:00:23.346Z,54.10
2019-02-02T17:02:52.544Z,54.47
2019-02-02T17:05:21.648Z,58.23
2019-02-02T17:07:50.766Z,52.90
2019-02-02T17:10:34.255Z,55.23
2019-02-02T17:13:03.225Z,51.77
2019-02-02T17:15:32.243Z,53.53
2019-02-02T17:18:01.264Z,53.10
2019-02-02T17:20:32.879Z,54.17
2019-02-02T17:23:01.920Z,52.23
2019-02-02T17:25:31.245Z,52.23
2019-02-02T17:28:00.594Z,51.00
2019-02-02T17:30:29.523Z,49.37
2019-02-02T17:33:00.754Z,49.93
2019-02-02T17:35:29.773Z,50.80
2019-02-02T17:37:59.039Z,53.37
2019-02-02T17:40:28.544Z,51.30
2019-02-02T17:42:57.931Z,52.03
2019-02-02T17:45:27.209Z,49.80
2019-02-02T17:47:56.246Z,50.97
2019-02-02T17:50:25.665Z,50.43
2019-02-02T17:52:54.798Z,50.13
2019-02-02T17:55:23.910Z,50.73
2019-02-02T17:57:53.057Z,50.67
2019-02-02T18:00:55.314Z,49.87
2019-02-02T18:03:24.338Z,49.63
2019-02-02T18:05:53.578Z,49.60
2019-02-02T18:08:22.615Z,51.23
2019-02-02T18:10:51.626Z,48.67
2019-02-02T18:13:20.734Z,49.03
2019-02-02T18:15:49.681Z,50.80
2019-02-02T18:18:19.058Z,48.90
2019-02-02T18:20:48.162Z,48.93
2019-02-02T18:23:18.392Z,47.50
2019-02-02T18:25:47.764Z,47.10
2019-02-02T18:28:17.214Z,48.77
2019-02-02T18:30:46.443Z,47.93
2019-02-02T18:33:15.501Z,48.63
2019-02-02T18:35:44.450Z,47.50
2019-02-02T18:38:13.459Z,60.97
2019-02-02T18:40:42.773Z,47.53
2019-02-02T18:43:11.718Z,46.13
2019-02-02T18:45:40.734Z,46.80
2019-02-02T18:48:09.758Z,44.23
2019-02-02T18:50:38.682Z,45.67
2019-02-02T18:53:07.639Z,43.67
2019-02-02T18:55:46.061Z,43.10
2019-02-02T18:58:15.630Z,42.03
2019-02-02T19:00:44.552Z,43.70
2019-02-02T19:03:13.855Z,42.70
2019-02-02T19:05:42.791Z,42.67
2019-02-02T19:08:11.742Z,43.23
2019-02-02T19:10:40.869Z,42.93
2019-02-02T19:13:10.223Z,44.00
2019-02-02T19:15:39.285Z,45.30
2019-02-02T19:18:08.458Z,44.53
2019-02-02T19:20:37.782Z,44.33
2019-02-02T19:23:07.013Z,44.37
2019-02-02T19:25:36.204Z,43.83
2019-02-02T19:28:07.111Z,43.80
2019-02-02T19:30:36.495Z,42.57
2019-02-02T19:33:05.766Z,42.93
2019-02-02T19:35:34.779Z,42.50
2019-02-02T19:38:04.182Z,42.67
2019-02-02T19:40:34.036Z,42.47
2019-02-02T19:43:03.226Z,43.17
2019-02-02T19:45:32.159Z,44.53
2019-02-02T19:48:01.215Z,42.50
2019-02-02T19:50:30.510Z,42.53
2019-02-02T19:52:59.543Z,42.00
2019-02-02T19:55:28.494Z,44.40
2019-02-02T19:57:57.598Z,47.83
2019-02-02T20:00:28.579Z,47.83
2019-02-02T20:02:57.633Z,45.83
2019-02-02T20:05:29.185Z,46.73
2019-02-02T20:07:57.385Z,44.30
2019-02-02T20:10:26.834Z,45.87
2019-02-02T20:12:55.885Z,48.10
2019-02-02T20:15:25.764Z,45.23
2019-02-02T20:17:55.299Z,46.33
2019-02-02T20:20:25.686Z,43.97
2019-02-02T20:22:55.312Z,44.83
2019-02-02T20:25:24.670Z,43.73
2019-02-02T20:27:53.799Z,43.97
2019-02-02T20:30:24.856Z,41.90
2019-02-02T20:32:54.197Z,43.43
2019-02-02T20:35:23.248Z,42.33
2019-02-02T20:37:52.351Z,41.60
2019-02-02T20:40:22.658Z,42.90
2019-02-02T20:42:51.719Z,45.00
2019-02-02T20:45:29.254Z,43.43
2019-02-02T20:47:58.246Z,42.53
2019-02-02T20:50:27.315Z,42.60
2019-02-02T20:52:56.318Z,43.83
2019-02-02T20:55:30.741Z,44.03
2019-02-02T20:57:59.798Z,42.83
2019-02-02T21:00:29.047Z,45.27
2019-02-02T21:02:58.202Z,42.40
2019-02-02T21:05:28.103Z,43.83
2019-02-02T21:07:57.228Z,45.43
2019-02-02T21:10:26.775Z,45.03
2019-02-02T21:12:55.875Z,45.53
2019-02-02T21:15:24.997Z,45.03
2019-02-02T21:17:54.031Z,47.53
2019-02-02T21:20:25.077Z,47.33
2019-02-02T21:22:54.238Z,44.30
2019-02-02T21:25:23.318Z,45.90
2019-02-02T21:27:52.318Z,45.03
2019-02-02T21:30:23.507Z,46.77
2019-02-02T21:32:52.579Z,46.10
2019-02-02T21:35:21.890Z,45.63
2019-02-02T21:37:50.860Z,48.27
2019-02-02T21:40:21.909Z,48.87
2019-02-02T21:42:50.918Z,48.57
2019-02-02T21:45:20.028Z,47.13
2019-02-02T21:47:49.032Z,47.07
2019-02-02T21:50:20.028Z,49.50
2019-02-02T21:52:49.288Z,47.50
2019-02-02T21:55:20.352Z,48.00
2019-02-02T21:57:49.854Z,48.80
2019-02-02T22:00:27.563Z,47.53
2019-02-02T22:02:56.646Z,48.93
2019-02-02T22:05:25.942Z,46.97
2019-02-02T22:07:55.006Z,48.17
2019-02-02T22:10:24.394Z,48.13
2019-02-02T22:12:53.687Z,48.50
2019-02-02T22:15:23.538Z,51.97
2019-02-02T22:17:52.837Z,46.83
2019-02-02T22:20:22.157Z,50.33
2019-02-02T22:22:51.643Z,47.67
2019-02-02T22:25:23.239Z,49.53
2019-02-02T22:27:52.565Z,48.80
2019-02-02T22:30:23.623Z,48.73
2019-02-02T22:32:52.778Z,47.93
2019-02-02T22:35:21.769Z,49.33
2019-02-02T22:37:51.312Z,46.00
2019-02-02T22:40:22.042Z,45.83
2019-02-02T22:42:51.648Z,47.30
2019-02-02T22:45:21.596Z,47.13
2019-02-02T22:47:52.527Z,46.87
2019-02-02T22:50:23.322Z,43.13
2019-02-02T22:52:52.902Z,43.50
2019-02-02T22:55:22.103Z,40.47
2019-02-02T22:57:51.538Z,42.83
2019-02-02T23:00:48.018Z,37.63
2019-02-02T23:03:18.522Z,33.43
2019-02-02T23:06:06.294Z,32.07
2019-02-02T23:09:12.414Z,32.67
2019-02-02T23:11:54.867Z,31.37
2019-02-02T23:14:45.389Z,30.80
2019-02-02T23:17:14.439Z,30.93
2019-02-02T23:19:43.440Z,32.93
2019-02-02T23:22:12.500Z,33.60
2019-02-02T23:24:41.502Z,32.47
2019-02-02T23:27:10.471Z,30.63
2019-02-02T23:29:39.833Z,28.83
2019-02-02T23:32:08.940Z,29.80
2019-02-02T23:34:38.003Z,28.90
2019-02-02T23:37:07.498Z,28.23
2019-02-02T23:39:36.477Z,27.77
2019-02-02T23:42:06.258Z,26.67
2019-02-02T23:44:35.539Z,25.07
2019-02-02T23:47:04.627Z,26.77
2019-02-02T23:49:34.093Z,26.30
2019-02-02T23:52:03.375Z,26.67
2019-02-02T23:54:32.603Z,27.10
2019-02-02T23:57:01.616Z,24.67
2019-02-02T23:59:30.878Z,27.17
